sensor_id;sensor_type;location;lat;lon;timestamp;pressure;altitude;pressure_sealevel;temperature;humidity
42603;BME280;28233;55.748;48.752;2023-05-10T00:01:32;100125.38;;;7.37;43.29
42603;BME280;28233;55.748;48.752;2023-05-10T00:03:35;100120.16;;;7.35;43.26
42603;BME280;28233;55.748;48.752;2023-05-10T00:05:38;100125.09;;;7.33;43.24
42603;BME280;28233;55.748;48.752;2023-05-10T00:07:41;100119.41;;;7.30;43.56
42603;BME280;28233;55.748;48.752;2023-05-10T00:09:47;100126.25;;;7.27;43.85
42603;BME280;28233;55.748;48.752;2023-05-10T00:11:49;100120.53;;;7.24;44.19
42603;BME280;28233;55.748;48.752;2023-05-10T00:13:52;100121.94;;;7.21;44.63
42603;BME280;28233;55.748;48.752;2023-05-10T00:15:55;100114.88;;;7.15;44.90
42603;BME280;28233;55.748;48.752;2023-05-10T00:17:58;100124.16;;;7.14;45.14
42603;BME280;28233;55.748;48.752;2023-05-10T00:20:01;100115.19;;;7.08;45.53
42603;BME280;28233;55.748;48.752;2023-05-10T00:22:05;100119.00;;;7.07;45.83
42603;BME280;28233;55.748;48.752;2023-05-10T00:24:08;100114.13;;;7.04;46.08
42603;BME280;28233;55.748;48.752;2023-05-10T00:26:11;100114.72;;;6.96;47.22
42603;BME280;28233;55.748;48.752;2023-05-10T00:28:13;100118.28;;;6.91;47.45
42603;BME280;28233;55.748;48.752;2023-05-10T00:30:16;100121.06;;;6.86;47.26
42603;BME280;28233;55.748;48.752;2023-05-10T00:32:19;100118.91;;;6.83;47.24
42603;BME280;28233;55.748;48.752;2023-05-10T00:34:23;100112.66;;;6.77;47.69
42603;BME280;28233;55.748;48.752;2023-05-10T00:36:27;100118.13;;;6.77;47.64
42603;BME280;28233;55.748;48.752;2023-05-10T00:38:30;100112.13;;;6.75;47.71
42603;BME280;28233;55.748;48.752;2023-05-10T00:40:32;100106.66;;;6.75;47.67
42603;BME280;28233;55.748;48.752;2023-05-10T00:42:35;100112.13;;;6.75;47.64
42603;BME280;28233;55.748;48.752;2023-05-10T00:44:38;100114.53;;;6.77;47.80
42603;BME280;28233;55.748;48.752;2023-05-10T00:46:41;100120.31;;;6.75;47.79
42603;BME280;28233;55.748;48.752;2023-05-10T00:48:44;100112.13;;;6.75;48.14
42603;BME280;28233;55.748;48.752;2023-05-10T00:50:47;100119.47;;;6.80;47.61
42603;BME280;28233;55.748;48.752;2023-05-10T00:52:50;100108.81;;;6.78;47.79
42603;BME280;28233;55.748;48.752;2023-05-10T00:54:53;100114.81;;;6.81;47.70
42603;BME280;28233;55.748;48.752;2023-05-10T00:56:56;100111.50;;;6.84;47.50
42603;BME280;28233;55.748;48.752;2023-05-10T00:58:59;100105.50;;;6.87;47.67
42603;BME280;28233;55.748;48.752;2023-05-10T01:01:02;100104.13;;;6.89;47.62
42603;BME280;28233;55.748;48.752;2023-05-10T01:03:06;100105.75;;;6.90;47.23
42603;BME280;28233;55.748;48.752;2023-05-10T01:05:09;100114.19;;;6.94;47.28
42603;BME280;28233;55.748;48.752;2023-05-10T01:07:12;100103.22;;;6.99;47.03
42603;BME280;28233;55.748;48.752;2023-05-10T01:09:15;100106.72;;;7.05;46.38
42603;BME280;28233;55.748;48.752;2023-05-10T01:11:18;100102.56;;;7.12;45.69
42603;BME280;28233;55.748;48.752;2023-05-10T01:15:35;100097.31;;;7.21;44.76
42603;BME280;28233;55.748;48.752;2023-05-10T01:17:40;100104.13;;;7.24;44.18
42603;BME280;28233;55.748;48.752;2023-05-10T01:19:44;100109.34;;;7.25;43.94
42603;BME280;28233;55.748;48.752;2023-05-10T01:22:21;100099.75;;;7.28;43.01
42603;BME280;28233;55.748;48.752;2023-05-10T01:27:24;100096.38;;;7.36;43.47
42603;BME280;28233;55.748;48.752;2023-05-10T01:34:09;100089.28;;;7.35;44.64
42603;BME280;28233;55.748;48.752;2023-05-10T01:36:45;100094.75;;;7.35;45.25
42603;BME280;28233;55.748;48.752;2023-05-10T01:38:53;100095.03;;;7.33;45.23
42603;BME280;28233;55.748;48.752;2023-05-10T01:43:34;100100.22;;;7.35;45.42
42603;BME280;28233;55.748;48.752;2023-05-10T01:45:41;100101.03;;;7.35;45.50
42603;BME280;28233;55.748;48.752;2023-05-10T01:48:18;100094.19;;;7.38;44.61
42603;BME280;28233;55.748;48.752;2023-05-10T01:50:27;100093.09;;;7.39;44.69
42603;BME280;28233;55.748;48.752;2023-05-10T01:52:35;100104.56;;;7.41;44.46
42603;BME280;28233;55.748;48.752;2023-05-10T01:54:52;100097.69;;;7.44;43.88
42603;BME280;28233;55.748;48.752;2023-05-10T01:57:00;100093.03;;;7.44;43.61
42603;BME280;28233;55.748;48.752;2023-05-10T01:59:09;100095.72;;;7.49;43.43
42603;BME280;28233;55.748;48.752;2023-05-10T02:01:14;100093.53;;;7.51;42.82
42603;BME280;28233;55.748;48.752;2023-05-10T02:03:20;100086.91;;;7.57;42.50
42603;BME280;28233;55.748;48.752;2023-05-10T02:05:25;100095.34;;;7.61;42.26
42603;BME280;28233;55.748;48.752;2023-05-10T02:07:30;100093.16;;;7.63;42.10
42603;BME280;28233;55.748;48.752;2023-05-10T02:09:34;100091.22;;;7.63;41.86
42603;BME280;28233;55.748;48.752;2023-05-10T02:11:41;100092.88;;;7.65;42.11
42603;BME280;28233;55.748;48.752;2023-05-10T02:13:47;100084.13;;;7.62;41.84
42603;BME280;28233;55.748;48.752;2023-05-10T02:15:52;100083.53;;;7.66;41.88
42603;BME280;28233;55.748;48.752;2023-05-10T02:17:56;100085.69;;;7.69;41.52
42603;BME280;28233;55.748;48.752;2023-05-10T02:20:02;100092.81;;;7.70;41.47
42603;BME280;28233;55.748;48.752;2023-05-10T02:22:06;100093.63;;;7.70;41.08
42603;BME280;28233;55.748;48.752;2023-05-10T02:24:11;100091.41;;;7.72;41.51
42603;BME280;28233;55.748;48.752;2023-05-10T02:26:15;100087.00;;;7.76;41.27
42603;BME280;28233;55.748;48.752;2023-05-10T02:28:19;100079.56;;;7.82;41.20
42603;BME280;28233;55.748;48.752;2023-05-10T02:30:24;100088.00;;;7.86;41.20
42603;BME280;28233;55.748;48.752;2023-05-10T02:32:27;100081.34;;;7.92;40.82
42603;BME280;28233;55.748;48.752;2023-05-10T02:34:31;100088.94;;;8.00;40.86
42603;BME280;28233;55.748;48.752;2023-05-10T02:36:36;100086.97;;;8.05;41.17
42603;BME280;28233;55.748;48.752;2023-05-10T02:38:40;100074.03;;;8.11;40.67
42603;BME280;28233;55.748;48.752;2023-05-10T02:40:44;100080.47;;;8.20;40.55
42603;BME280;28233;55.748;48.752;2023-05-10T02:42:50;100076.88;;;8.25;40.25
42603;BME280;28233;55.748;48.752;2023-05-10T02:45:00;100073.50;;;8.33;40.06
42603;BME280;28233;55.748;48.752;2023-05-10T02:47:09;100073.44;;;8.38;40.02
42603;BME280;28233;55.748;48.752;2023-05-10T02:49:12;100073.69;;;8.42;39.63
42603;BME280;28233;55.748;48.752;2023-05-10T02:51:16;100074.66;;;8.51;39.86
42603;BME280;28233;55.748;48.752;2023-05-10T02:53:31;100075.41;;;8.57;40.25
42603;BME280;28233;55.748;48.752;2023-05-10T02:55:38;100074.22;;;8.63;40.65
42603;BME280;28233;55.748;48.752;2023-05-10T02:58:01;100073.31;;;8.67;40.88
42603;BME280;28233;55.748;48.752;2023-05-10T03:00:05;100065.34;;;8.71;41.05
42603;BME280;28233;55.748;48.752;2023-05-10T03:02:10;100074.09;;;8.73;41.14
42603;BME280;28233;55.748;48.752;2023-05-10T03:04:13;100064.66;;;8.79;40.80
42603;BME280;28233;55.748;48.752;2023-05-10T03:06:16;100067.66;;;8.83;41.27
42603;BME280;28233;55.748;48.752;2023-05-10T03:08:19;100069.78;;;8.86;41.41
42603;BME280;28233;55.748;48.752;2023-05-10T03:10:26;100056.53;;;8.93;41.87
42603;BME280;28233;55.748;48.752;2023-05-10T03:15:19;100062.66;;;9.04;41.25
42603;BME280;28233;55.748;48.752;2023-05-10T03:17:41;100069.19;;;9.08;41.92
42603;BME280;28233;55.748;48.752;2023-05-10T03:19:55;100062.06;;;9.07;41.83
42603;BME280;28233;55.748;48.752;2023-05-10T03:22:02;100061.78;;;9.08;42.13
42603;BME280;28233;55.748;48.752;2023-05-10T03:24:08;100066.13;;;9.09;42.48
42603;BME280;28233;55.748;48.752;2023-05-10T03:26:24;100061.97;;;9.12;42.44
42603;BME280;28233;55.748;48.752;2023-05-10T03:28:28;100068.59;;;9.11;42.62
42603;BME280;28233;55.748;48.752;2023-05-10T03:30:33;100065.56;;;9.13;43.04
42603;BME280;28233;55.748;48.752;2023-05-10T03:32:37;100060.66;;;9.09;43.23
42603;BME280;28233;55.748;48.752;2023-05-10T03:34:43;100064.13;;;9.15;43.65
42603;BME280;28233;55.748;48.752;2023-05-10T03:36:46;100054.19;;;9.19;44.05
42603;BME280;28233;55.748;48.752;2023-05-10T03:38:49;100061.22;;;9.25;43.95
42603;BME280;28233;55.748;48.752;2023-05-10T03:40:52;100057.59;;;9.30;44.14
42603;BME280;28233;55.748;48.752;2023-05-10T03:42:55;100053.94;;;9.35;43.17
42603;BME280;28233;55.748;48.752;2023-05-10T03:44:58;100054.13;;;9.38;43.18
42603;BME280;28233;55.748;48.752;2023-05-10T03:47:01;100055.41;;;9.46;42.50
42603;BME280;28233;55.748;48.752;2023-05-10T03:49:03;100053.38;;;9.51;42.03
42603;BME280;28233;55.748;48.752;2023-05-10T03:51:06;100055.09;;;9.61;42.60
42603;BME280;28233;55.748;48.752;2023-05-10T03:53:09;100057.75;;;9.66;42.42
42603;BME280;28233;55.748;48.752;2023-05-10T03:55:12;100054.84;;;9.77;42.07
42603;BME280;28233;55.748;48.752;2023-05-10T03:57:15;100043.47;;;9.83;41.67
42603;BME280;28233;55.748;48.752;2023-05-10T03:59:17;100052.91;;;9.91;41.45
42603;BME280;28233;55.748;48.752;2023-05-10T04:01:20;100050.28;;;10.00;41.65
42603;BME280;28233;55.748;48.752;2023-05-10T04:03:23;100046.63;;;10.04;41.62
42603;BME280;28233;55.748;48.752;2023-05-10T04:05:26;100045.09;;;10.12;40.30
42603;BME280;28233;55.748;48.752;2023-05-10T04:07:28;100051.63;;;10.16;40.75
42603;BME280;28233;55.748;48.752;2023-05-10T04:09:31;100045.28;;;10.15;39.48
42603;BME280;28233;55.748;48.752;2023-05-10T04:11:34;100050.06;;;10.24;39.68
42603;BME280;28233;55.748;48.752;2023-05-10T04:13:37;100047.84;;;10.26;38.58
42603;BME280;28233;55.748;48.752;2023-05-10T04:15:40;100034.22;;;10.21;38.39
42603;BME280;28233;55.748;48.752;2023-05-10T04:17:43;100046.13;;;10.30;38.12
42603;BME280;28233;55.748;48.752;2023-05-10T04:19:46;100047.03;;;10.39;38.16
42603;BME280;28233;55.748;48.752;2023-05-10T04:21:49;100049.97;;;10.43;38.02
42603;BME280;28233;55.748;48.752;2023-05-10T04:23:52;100050.66;;;10.48;38.24
42603;BME280;28233;55.748;48.752;2023-05-10T04:26:01;100046.50;;;10.51;37.54
42603;BME280;28233;55.748;48.752;2023-05-10T04:28:04;100044.75;;;10.55;37.35
42603;BME280;28233;55.748;48.752;2023-05-10T04:30:07;100046.41;;;10.56;36.69
42603;BME280;28233;55.748;48.752;2023-05-10T04:32:10;100040.47;;;10.63;36.65
42603;BME280;28233;55.748;48.752;2023-05-10T04:34:13;100042.28;;;10.67;36.21
42603;BME280;28233;55.748;48.752;2023-05-10T04:36:16;100044.72;;;10.69;35.44
42603;BME280;28233;55.748;48.752;2023-05-10T04:38:18;100043.81;;;10.73;36.10
42603;BME280;28233;55.748;48.752;2023-05-10T04:40:21;100047.22;;;10.79;35.56
42603;BME280;28233;55.748;48.752;2023-05-10T04:42:25;100046.00;;;10.85;35.85
42603;BME280;28233;55.748;48.752;2023-05-10T04:44:28;100030.41;;;10.94;35.11
42603;BME280;28233;55.748;48.752;2023-05-10T04:46:30;100045.69;;;11.09;34.92
42603;BME280;28233;55.748;48.752;2023-05-10T04:48:33;100032.53;;;11.20;35.11
42603;BME280;28233;55.748;48.752;2023-05-10T04:50:36;100035.50;;;11.32;35.15
42603;BME280;28233;55.748;48.752;2023-05-10T04:52:39;100030.88;;;11.41;35.03
42603;BME280;28233;55.748;48.752;2023-05-10T04:54:42;100037.03;;;11.47;34.71
42603;BME280;28233;55.748;48.752;2023-05-10T04:56:44;100027.03;;;11.51;34.04
42603;BME280;28233;55.748;48.752;2023-05-10T04:58:47;100021.41;;;11.56;33.64
42603;BME280;28233;55.748;48.752;2023-05-10T05:00:50;100013.94;;;11.57;34.00
42603;BME280;28233;55.748;48.752;2023-05-10T05:02:53;100018.41;;;11.75;34.36
42603;BME280;28233;55.748;48.752;2023-05-10T05:04:56;100007.66;;;11.88;33.82
42603;BME280;28233;55.748;48.752;2023-05-10T05:07:00;100009.16;;;12.02;34.64
42603;BME280;28233;55.748;48.752;2023-05-10T05:09:03;100016.00;;;12.14;33.46
42603;BME280;28233;55.748;48.752;2023-05-10T05:11:05;100009.19;;;12.20;33.01
42603;BME280;28233;55.748;48.752;2023-05-10T05:13:08;100009.38;;;12.23;32.24
42603;BME280;28233;55.748;48.752;2023-05-10T05:15:11;100010.19;;;12.24;31.92
42603;BME280;28233;55.748;48.752;2023-05-10T05:17:14;100011.66;;;12.30;32.27
42603;BME280;28233;55.748;48.752;2023-05-10T05:19:16;100003.22;;;12.44;32.18
42603;BME280;28233;55.748;48.752;2023-05-10T05:21:20;100004.88;;;12.62;32.77
42603;BME280;28233;55.748;48.752;2023-05-10T05:23:22;100002.78;;;12.68;32.34
42603;BME280;28233;55.748;48.752;2023-05-10T05:25:27;99997.41;;;12.72;32.72
42603;BME280;28233;55.748;48.752;2023-05-10T05:27:30;99999.06;;;12.73;32.00
42603;BME280;28233;55.748;48.752;2023-05-10T05:29:33;100000.66;;;12.74;32.39
42603;BME280;28233;55.748;48.752;2023-05-10T05:31:36;99995.47;;;12.72;31.75
42603;BME280;28233;55.748;48.752;2023-05-10T05:33:39;100000.34;;;12.66;30.96
42603;BME280;28233;55.748;48.752;2023-05-10T05:35:42;99998.56;;;12.62;30.94
42603;BME280;28233;55.748;48.752;2023-05-10T05:37:49;99998.53;;;12.53;30.95
42603;BME280;28233;55.748;48.752;2023-05-10T05:39:52;99990.44;;;12.48;31.26
42603;BME280;28233;55.748;48.752;2023-05-10T05:41:57;99997.25;;;12.42;31.57
42603;BME280;28233;55.748;48.752;2023-05-10T05:44:01;99994.97;;;12.44;31.31
42603;BME280;28233;55.748;48.752;2023-05-10T05:46:04;99993.84;;;12.45;31.82
42603;BME280;28233;55.748;48.752;2023-05-10T05:48:07;99993.69;;;12.50;31.63
42603;BME280;28233;55.748;48.752;2023-05-10T05:50:10;99990.44;;;12.48;32.04
42603;BME280;28233;55.748;48.752;2023-05-10T05:52:12;99985.75;;;12.57;32.62
42603;BME280;28233;55.748;48.752;2023-05-10T05:54:16;99980.06;;;12.62;32.74
42603;BME280;28233;55.748;48.752;2023-05-10T05:56:18;99981.69;;;12.63;31.82
42603;BME280;28233;55.748;48.752;2023-05-10T05:58:27;99973.75;;;12.62;31.94
42603;BME280;28233;55.748;48.752;2023-05-10T06:00:30;99973.75;;;12.62;31.48
42603;BME280;28233;55.748;48.752;2023-05-10T06:02:33;99980.72;;;12.59;31.39
42603;BME280;28233;55.748;48.752;2023-05-10T06:04:36;99980.72;;;12.68;31.80
42603;BME280;28233;55.748;48.752;2023-05-10T06:06:39;99974.38;;;12.76;32.03
42603;BME280;28233;55.748;48.752;2023-05-10T06:08:42;99968.06;;;12.84;32.24
42603;BME280;28233;55.748;48.752;2023-05-10T06:10:44;99972.59;;;12.89;32.29
42603;BME280;28233;55.748;48.752;2023-05-10T06:12:47;99973.09;;;12.91;32.10
42603;BME280;28233;55.748;48.752;2023-05-10T06:14:50;99954.59;;;12.83;32.33
42603;BME280;28233;55.748;48.752;2023-05-10T06:16:53;99968.69;;;12.90;32.05
42603;BME280;28233;55.748;48.752;2023-05-10T06:18:56;99965.44;;;12.88;31.91
42603;BME280;28233;55.748;48.752;2023-05-10T06:20:58;99965.13;;;12.98;32.01
42603;BME280;28233;55.748;48.752;2023-05-10T06:23:01;99966.25;;;13.06;32.82
42603;BME280;28233;55.748;48.752;2023-05-10T06:25:04;99964.91;;;13.12;32.47
42603;BME280;28233;55.748;48.752;2023-05-10T06:27:07;99965.06;;;13.24;33.87
42603;BME280;28233;55.748;48.752;2023-05-10T06:29:10;99962.78;;;13.35;34.32
42603;BME280;28233;55.748;48.752;2023-05-10T06:31:12;99970.25;;;13.43;34.69
42603;BME280;28233;55.748;48.752;2023-05-10T06:33:15;99966.81;;;13.46;33.36
42603;BME280;28233;55.748;48.752;2023-05-10T06:35:18;99962.25;;;13.50;33.95
42603;BME280;28233;55.748;48.752;2023-05-10T06:37:21;99970.03;;;13.57;34.72
42603;BME280;28233;55.748;48.752;2023-05-10T06:39:24;99957.66;;;13.63;32.29
42603;BME280;28233;55.748;48.752;2023-05-10T06:41:27;99963.94;;;13.72;34.28
42603;BME280;28233;55.748;48.752;2023-05-10T06:43:31;99963.16;;;13.72;32.77
42603;BME280;28233;55.748;48.752;2023-05-10T06:45:34;99953.56;;;13.69;34.10
42603;BME280;28233;55.748;48.752;2023-05-10T06:47:37;99956.47;;;13.73;34.53
42603;BME280;28233;55.748;48.752;2023-05-10T06:49:40;99959.72;;;13.75;34.39
42603;BME280;28233;55.748;48.752;2023-05-10T06:51:43;99951.91;;;13.77;33.62
42603;BME280;28233;55.748;48.752;2023-05-10T06:53:46;99949.75;;;13.83;33.23
42603;BME280;28233;55.748;48.752;2023-05-10T06:55:49;99958.81;;;13.92;34.26
42603;BME280;28233;55.748;48.752;2023-05-10T06:57:52;99956.03;;;13.92;33.66
42603;BME280;28233;55.748;48.752;2023-05-10T06:59:55;99950.66;;;13.95;33.89
42603;BME280;28233;55.748;48.752;2023-05-10T07:01:58;99939.75;;;13.99;34.37
42603;BME280;28233;55.748;48.752;2023-05-10T07:04:01;99942.09;;;14.18;34.61
42603;BME280;28233;55.748;48.752;2023-05-10T07:06:05;99946.22;;;14.33;33.94
42603;BME280;28233;55.748;48.752;2023-05-10T07:08:17;99938.31;;;14.44;32.93
42603;BME280;28233;55.748;48.752;2023-05-10T07:10:20;99950.31;;;14.48;32.00
42603;BME280;28233;55.748;48.752;2023-05-10T07:12:24;99941.81;;;14.53;31.96
42603;BME280;28233;55.748;48.752;2023-05-10T07:14:27;99946.25;;;14.54;32.04
42603;BME280;28233;55.748;48.752;2023-05-10T07:16:29;99938.25;;;14.52;31.58
42603;BME280;28233;55.748;48.752;2023-05-10T07:18:32;99932.44;;;14.45;30.92
42603;BME280;28233;55.748;48.752;2023-05-10T07:20:35;99934.13;;;14.37;31.11
42603;BME280;28233;55.748;48.752;2023-05-10T07:22:38;99931.31;;;14.25;30.74
42603;BME280;28233;55.748;48.752;2023-05-10T07:24:41;99932.50;;;14.15;31.25
42603;BME280;28233;55.748;48.752;2023-05-10T07:26:44;99931.91;;;14.31;32.29
42603;BME280;28233;55.748;48.752;2023-05-10T07:28:47;99926.53;;;14.55;34.01
42603;BME280;28233;55.748;48.752;2023-05-10T07:30:50;99926.38;;;14.73;34.03
42603;BME280;28233;55.748;48.752;2023-05-10T07:32:53;99931.50;;;14.62;31.61
42603;BME280;28233;55.748;48.752;2023-05-10T07:34:56;99927.34;;;14.56;32.03
42603;BME280;28233;55.748;48.752;2023-05-10T07:36:59;99923.94;;;14.50;32.01
42603;BME280;28233;55.748;48.752;2023-05-10T07:39:02;99929.22;;;14.64;32.61
42603;BME280;28233;55.748;48.752;2023-05-10T07:41:04;99919.84;;;14.77;32.43
42603;BME280;28233;55.748;48.752;2023-05-10T07:43:07;99922.78;;;14.93;32.99
42603;BME280;28233;55.748;48.752;2023-05-10T07:45:10;99918.78;;;15.03;32.27
42603;BME280;28233;55.748;48.752;2023-05-10T07:47:13;99913.94;;;15.12;34.16
42603;BME280;28233;55.748;48.752;2023-05-10T07:49:16;99922.38;;;15.28;33.04
42603;BME280;28233;55.748;48.752;2023-05-10T07:51:18;99924.13;;;15.33;31.89
42603;BME280;28233;55.748;48.752;2023-05-10T07:53:21;99912.81;;;15.38;31.18
42603;BME280;28233;55.748;48.752;2023-05-10T07:55:24;99918.22;;;15.22;30.20
42603;BME280;28233;55.748;48.752;2023-05-10T07:57:27;99911.09;;;14.88;30.30
42603;BME280;28233;55.748;48.752;2023-05-10T07:59:29;99904.94;;;14.49;29.97
42603;BME280;28233;55.748;48.752;2023-05-10T08:01:33;99908.19;;;14.30;30.12
42603;BME280;28233;55.748;48.752;2023-05-10T08:03:37;99907.50;;;14.12;30.51
42603;BME280;28233;55.748;48.752;2023-05-10T08:05:40;99908.03;;;14.05;30.61
42603;BME280;28233;55.748;48.752;2023-05-10T08:07:43;99907.44;;;14.21;31.11
42603;BME280;28233;55.748;48.752;2023-05-10T08:09:46;99897.78;;;14.27;30.42
42603;BME280;28233;55.748;48.752;2023-05-10T08:11:49;99899.06;;;14.29;30.31
42603;BME280;28233;55.748;48.752;2023-05-10T08:13:52;99894.69;;;14.28;30.18
42603;BME280;28233;55.748;48.752;2023-05-10T08:15:55;99888.16;;;14.12;30.04
42603;BME280;28233;55.748;48.752;2023-05-10T08:17:58;99885.06;;;14.13;31.16
42603;BME280;28233;55.748;48.752;2023-05-10T08:20:01;99887.81;;;14.34;30.97
42603;BME280;28233;55.748;48.752;2023-05-10T08:22:05;99877.22;;;14.57;31.90
42603;BME280;28233;55.748;48.752;2023-05-10T08:24:08;99889.53;;;14.81;31.50
42603;BME280;28233;55.748;48.752;2023-05-10T08:26:11;99877.97;;;14.67;29.22
42603;BME280;28233;55.748;48.752;2023-05-10T08:28:14;99894.69;;;14.49;29.53
42603;BME280;28233;55.748;48.752;2023-05-10T08:30:17;99883.00;;;14.65;29.47
42603;BME280;28233;55.748;48.752;2023-05-10T08:32:20;99878.84;;;14.92;30.89
42603;BME280;28233;55.748;48.752;2023-05-10T08:34:23;99876.94;;;15.17;32.86
42603;BME280;28233;55.748;48.752;2023-05-10T08:36:26;99876.94;;;15.29;30.60
42603;BME280;28233;55.748;48.752;2023-05-10T08:38:30;99870.56;;;15.16;29.65
42603;BME280;28233;55.748;48.752;2023-05-10T08:40:33;99870.53;;;14.92;30.18
42603;BME280;28233;55.748;48.752;2023-05-10T08:42:40;99870.34;;;15.09;32.41
42603;BME280;28233;55.748;48.752;2023-05-10T08:44:46;99866.22;;;15.28;32.38
42603;BME280;28233;55.748;48.752;2023-05-10T08:46:53;99861.38;;;15.49;33.11
42603;BME280;28233;55.748;48.752;2023-05-10T08:48:57;99859.31;;;15.71;32.48
42603;BME280;28233;55.748;48.752;2023-05-10T08:51:02;99854.31;;;15.89;32.71
42603;BME280;28233;55.748;48.752;2023-05-10T08:53:11;99857.88;;;16.01;32.17
42603;BME280;28233;55.748;48.752;2023-05-10T08:55:15;99855.88;;;16.14;33.57
42603;BME280;28233;55.748;48.752;2023-05-10T08:57:20;99850.88;;;16.20;31.40
42603;BME280;28233;55.748;48.752;2023-05-10T08:59:23;99852.97;;;16.23;31.58
42603;BME280;28233;55.748;48.752;2023-05-10T09:01:26;99854.44;;;16.33;31.29
42603;BME280;28233;55.748;48.752;2023-05-10T09:03:30;99841.72;;;16.32;30.19
42603;BME280;28233;55.748;48.752;2023-05-10T09:05:35;99842.97;;;16.34;30.95
42603;BME280;28233;55.748;48.752;2023-05-10T09:07:38;99831.09;;;16.34;32.28
42603;BME280;28233;55.748;48.752;2023-05-10T09:09:41;99840.06;;;16.43;32.05
42603;BME280;28233;55.748;48.752;2023-05-10T09:11:44;99836.16;;;16.44;31.50
42603;BME280;28233;55.748;48.752;2023-05-10T09:13:48;99827.31;;;16.54;31.37
42603;BME280;28233;55.748;48.752;2023-05-10T09:15:51;99821.34;;;16.68;31.32
42603;BME280;28233;55.748;48.752;2023-05-10T09:17:54;99818.38;;;16.77;31.33
42603;BME280;28233;55.748;48.752;2023-05-10T09:19:59;99816.38;;;16.89;31.93
42603;BME280;28233;55.748;48.752;2023-05-10T09:22:01;99820.94;;;16.98;31.04
42603;BME280;28233;55.748;48.752;2023-05-10T09:24:08;99823.03;;;17.01;31.30
42603;BME280;28233;55.748;48.752;2023-05-10T09:26:11;99827.94;;;17.07;32.42
42603;BME280;28233;55.748;48.752;2023-05-10T09:28:14;99825.19;;;17.07;31.95
42603;BME280;28233;55.748;48.752;2023-05-10T09:30:27;99820.50;;;17.11;30.60
42603;BME280;28233;55.748;48.752;2023-05-10T09:32:47;99816.19;;;17.14;31.59
42603;BME280;28233;55.748;48.752;2023-05-10T09:34:50;99821.06;;;17.17;31.46
42603;BME280;28233;55.748;48.752;2023-05-10T09:36:56;99813.25;;;17.23;31.56
42603;BME280;28233;55.748;48.752;2023-05-10T09:38:59;99812.28;;;17.31;31.19
42603;BME280;28233;55.748;48.752;2023-05-10T09:41:02;99820.84;;;17.26;29.81
42603;BME280;28233;55.748;48.752;2023-05-10T09:43:08;99818.72;;;17.19;29.18
42603;BME280;28233;55.748;48.752;2023-05-10T09:45:11;99811.66;;;17.22;28.89
42603;BME280;28233;55.748;48.752;2023-05-10T09:47:17;99803.38;;;17.09;29.00
42603;BME280;28233;55.748;48.752;2023-05-10T09:49:21;99803.94;;;17.15;30.01
42603;BME280;28233;55.748;48.752;2023-05-10T09:51:25;99803.31;;;17.06;28.38
42603;BME280;28233;55.748;48.752;2023-05-10T09:53:29;99802.84;;;16.88;29.52
42603;BME280;28233;55.748;48.752;2023-05-10T09:55:41;99801.78;;;16.93;28.52
42603;BME280;28233;55.748;48.752;2023-05-10T09:57:48;99790.25;;;17.06;30.21
42603;BME280;28233;55.748;48.752;2023-05-10T09:59:51;99797.09;;;17.28;30.21
42603;BME280;28233;55.748;48.752;2023-05-10T10:01:57;99791.47;;;17.41;29.56
42603;BME280;28233;55.748;48.752;2023-05-10T10:04:05;99787.59;;;17.45;27.29
42603;BME280;28233;55.748;48.752;2023-05-10T10:06:08;99789.53;;;17.61;27.67
42603;BME280;28233;55.748;48.752;2023-05-10T10:08:27;99786.09;;;17.67;26.79
42603;BME280;28233;55.748;48.752;2023-05-10T10:10:31;99782.16;;;17.68;28.37
42603;BME280;28233;55.748;48.752;2023-05-10T10:12:34;99783.66;;;17.82;29.31
42603;BME280;28233;55.748;48.752;2023-05-10T10:14:38;99780.97;;;18.05;30.07
42603;BME280;28233;55.748;48.752;2023-05-10T10:16:41;99780.31;;;18.11;29.90
42603;BME280;28233;55.748;48.752;2023-05-10T10:19:04;99771.69;;;18.16;29.66
42603;BME280;28233;55.748;48.752;2023-05-10T10:21:07;99773.00;;;18.23;30.84
42603;BME280;28233;55.748;48.752;2023-05-10T10:23:11;99767.50;;;18.26;29.99
42603;BME280;28233;55.748;48.752;2023-05-10T10:25:16;99761.63;;;18.31;29.40
42603;BME280;28233;55.748;48.752;2023-05-10T10:29:47;99764.44;;;18.54;30.59
42603;BME280;28233;55.748;48.752;2023-05-10T10:34:43;99763.03;;;18.64;27.45
42603;BME280;28233;55.748;48.752;2023-05-10T10:36:46;99749.41;;;18.78;27.72
42603;BME280;28233;55.748;48.752;2023-05-10T10:39:00;99754.16;;;19.01;27.15
42603;BME280;28233;55.748;48.752;2023-05-10T10:41:26;99752.06;;;18.94;26.25
42603;BME280;28233;55.748;48.752;2023-05-10T10:43:29;99758.59;;;19.06;26.73
42603;BME280;28233;55.748;48.752;2023-05-10T10:45:32;99758.06;;;18.96;25.56
42603;BME280;28233;55.748;48.752;2023-05-10T10:47:35;99753.47;;;18.85;25.30
42603;BME280;28233;55.748;48.752;2023-05-10T10:52:21;99743.97;;;18.43;25.13
42603;BME280;28233;55.748;48.752;2023-05-10T10:54:28;99734.94;;;18.50;25.01
42603;BME280;28233;55.748;48.752;2023-05-10T10:56:31;99728.81;;;18.41;25.33
42603;BME280;28233;55.748;48.752;2023-05-10T10:58:38;99728.50;;;18.46;25.69
42603;BME280;28233;55.748;48.752;2023-05-10T11:00:41;99725.13;;;18.33;25.94
42603;BME280;28233;55.748;48.752;2023-05-10T11:02:49;99733.50;;;18.36;26.40
42603;BME280;28233;55.748;48.752;2023-05-10T11:04:52;99737.00;;;18.76;28.39
42603;BME280;28233;55.748;48.752;2023-05-10T11:07:18;99728.13;;;19.16;25.45
42603;BME280;28233;55.748;48.752;2023-05-10T11:09:24;99718.91;;;19.39;25.52
42603;BME280;28233;55.748;48.752;2023-05-10T11:11:27;99725.28;;;19.66;26.60
42603;BME280;28233;55.748;48.752;2023-05-10T11:13:45;99729.69;;;20.01;27.65